createdAt,value
2018-06-12T00:00:12.349Z,17.01
2018-06-12T00:02:41.213Z,16.93
2018-06-12T00:05:10.057Z,16.88
2018-06-12T00:07:38.921Z,16.79
2018-06-12T00:10:07.807Z,16.82
2018-06-12T00:12:36.648Z,16.85
2018-06-12T00:15:05.544Z,16.80
2018-06-12T00:17:34.413Z,16.93
2018-06-12T00:20:03.251Z,17.01
2018-06-12T00:22:32.142Z,16.83
2018-06-12T00:25:00.991Z,16.81
2018-06-12T00:27:29.874Z,16.78
2018-06-12T00:29:58.725Z,16.71
2018-06-12T00:32:27.586Z,16.66
2018-06-12T00:34:56.494Z,16.61
2018-06-12T00:37:25.354Z,16.60
2018-06-12T00:39:54.268Z,16.58
2018-06-12T00:42:23.120Z,16.77
2018-06-12T00:44:52.000Z,16.59
2018-06-12T00:47:20.889Z,16.54
2018-06-12T00:49:49.776Z,16.51
2018-06-12T00:52:18.602Z,16.49
2018-06-12T00:54:47.490Z,16.45
2018-06-12T00:57:16.364Z,16.62
2018-06-12T00:59:45.233Z,16.64
2018-06-12T01:02:14.080Z,16.41
2018-06-12T01:04:42.948Z,16.35
2018-06-12T01:07:11.810Z,16.28
2018-06-12T01:09:40.665Z,16.17
2018-06-12T01:12:09.537Z,16.17
2018-06-12T01:14:38.400Z,16.10
2018-06-12T01:17:07.278Z,16.03
2018-06-12T01:19:36.113Z,16.01
2018-06-12T01:22:04.994Z,16.05
2018-06-12T01:24:33.881Z,15.98
2018-06-12T01:27:02.722Z,16.05
2018-06-12T01:29:31.608Z,16.39
2018-06-12T01:32:00.452Z,16.27
2018-06-12T01:34:29.343Z,16.21
2018-06-12T01:36:58.243Z,16.28
2018-06-12T01:39:27.078Z,16.54
2018-06-12T01:41:55.949Z,16.40
2018-06-12T01:44:24.783Z,16.30
2018-06-12T01:46:53.636Z,16.28
2018-06-12T01:49:22.497Z,16.24
2018-06-12T01:51:51.369Z,16.23
2018-06-12T01:54:20.200Z,16.26
2018-06-12T01:56:49.046Z,16.45
2018-06-12T01:59:17.907Z,16.23
2018-06-12T02:01:46.769Z,16.48
2018-06-12T02:04:15.636Z,16.32
2018-06-12T02:06:44.509Z,16.20
2018-06-12T02:09:13.376Z,16.45
2018-06-12T02:11:42.211Z,16.17
2018-06-12T02:14:11.090Z,16.14
2018-06-12T02:16:39.945Z,16.05
2018-06-12T02:19:08.792Z,16.01
2018-06-12T02:21:37.645Z,16.03
2018-06-12T02:24:06.644Z,16.00
2018-06-12T02:26:35.497Z,15.90
2018-06-12T02:29:04.360Z,15.79
2018-06-12T02:31:33.251Z,15.72
2018-06-12T02:34:02.452Z,15.69
2018-06-12T02:36:31.326Z,15.60
2018-06-12T02:39:00.167Z,15.58
2018-06-12T02:41:29.078Z,15.54
2018-06-12T02:43:57.949Z,15.48
2018-06-12T02:46:26.810Z,15.43
2018-06-12T02:48:55.691Z,15.39
2018-06-12T02:51:24.583Z,15.43
2018-06-12T02:53:53.442Z,15.47
2018-06-12T02:56:22.435Z,15.48
2018-06-12T02:58:51.164Z,15.51
2018-06-12T03:01:20.069Z,15.50
2018-06-12T03:03:48.943Z,15.48
2018-06-12T03:06:17.811Z,15.40
2018-06-12T03:08:46.709Z,15.38
2018-06-12T03:11:15.599Z,15.37
2018-06-12T03:13:44.473Z,15.32
2018-06-12T03:16:13.357Z,15.32
2018-06-12T03:18:42.270Z,15.37
2018-06-12T03:21:11.151Z,15.57
2018-06-12T03:23:40.060Z,15.43
2018-06-12T03:26:08.945Z,15.66
2018-06-12T03:28:37.835Z,15.52
2018-06-12T03:31:06.719Z,15.49
2018-06-12T03:33:35.596Z,15.41
2018-06-12T03:36:04.490Z,15.36
2018-06-12T03:38:33.315Z,15.29
2018-06-12T03:41:02.178Z,15.30
2018-06-12T03:43:31.070Z,15.29
2018-06-12T03:45:59.988Z,15.33
2018-06-12T03:48:28.845Z,15.32
2018-06-12T03:50:57.756Z,15.35
2018-06-12T03:53:26.633Z,15.50
2018-06-12T03:55:55.507Z,15.33
2018-06-12T03:58:24.337Z,15.31
2018-06-12T04:00:53.177Z,15.55
2018-06-12T04:03:22.011Z,15.32
2018-06-12T04:05:50.840Z,15.37
2018-06-12T04:08:19.665Z,15.38
2018-06-12T04:10:48.535Z,15.37
2018-06-12T04:13:17.400Z,15.35
2018-06-12T04:15:46.244Z,15.33
2018-06-12T04:18:15.132Z,15.33
2018-06-12T04:20:44.035Z,15.35
2018-06-12T04:23:12.914Z,15.59
2018-06-12T04:25:41.798Z,15.45
2018-06-12T04:28:10.681Z,15.49
2018-06-12T04:30:39.588Z,15.52
2018-06-12T04:33:08.468Z,15.80
2018-06-12T04:35:37.341Z,15.98
2018-06-12T04:38:06.194Z,15.81
2018-06-12T04:40:35.046Z,15.84
2018-06-12T04:43:03.879Z,15.90
2018-06-12T04:45:32.914Z,15.94
2018-06-12T04:48:01.805Z,16.08
2018-06-12T04:50:30.696Z,16.22
2018-06-12T04:52:59.549Z,16.29
2018-06-12T04:55:28.393Z,16.33
2018-06-12T04:57:57.263Z,16.38
2018-06-12T05:00:26.159Z,16.50
2018-06-12T05:02:55.008Z,16.58
2018-06-12T05:05:23.829Z,16.88
2018-06-12T05:07:52.673Z,16.81
2018-06-12T05:10:21.620Z,16.92
2018-06-12T05:12:50.459Z,16.99
2018-06-12T05:15:19.301Z,16.98
2018-06-12T05:17:48.160Z,16.96
2018-06-12T05:20:16.996Z,16.96
2018-06-12T05:22:45.882Z,17.10
2018-06-12T05:25:14.755Z,17.20
2018-06-12T05:27:43.587Z,17.24
2018-06-12T05:30:12.456Z,17.39
2018-06-12T05:32:41.293Z,17.42
2018-06-12T05:35:10.134Z,17.43
2018-06-12T05:37:39.028Z,17.50
2018-06-12T05:40:07.886Z,17.62
2018-06-12T05:42:36.762Z,17.56
2018-06-12T05:45:05.689Z,17.54
2018-06-12T05:47:34.559Z,17.51
2018-06-12T05:50:03.443Z,17.54
2018-06-12T05:52:32.287Z,17.56
2018-06-12T05:55:01.162Z,17.58
2018-06-12T05:57:30.027Z,17.54
2018-06-12T05:59:58.899Z,17.56
2018-06-12T06:02:27.750Z,17.57
2018-06-12T06:04:56.633Z,17.42
2018-06-12T06:07:25.580Z,17.41
2018-06-12T06:09:54.346Z,17.58
2018-06-12T06:12:23.203Z,17.38
2018-06-12T06:14:52.092Z,17.39
2018-06-12T06:17:21.135Z,17.40
2018-06-12T06:19:50.807Z,17.39
2018-06-12T06:22:19.649Z,17.30
2018-06-12T06:24:48.688Z,17.33
2018-06-12T06:27:17.547Z,17.39
2018-06-12T06:29:46.481Z,17.35
2018-06-12T06:32:15.328Z,17.39
2018-06-12T06:34:44.181Z,17.35
2018-06-12T06:37:13.024Z,17.41
2018-06-12T06:39:41.883Z,17.48
2018-06-12T06:42:10.771Z,17.67
2018-06-12T06:44:39.624Z,17.60
2018-06-12T06:47:08.469Z,17.65
2018-06-12T06:49:37.303Z,17.67
2018-06-12T06:52:06.335Z,17.60
2018-06-12T06:54:35.168Z,17.63
2018-06-12T06:57:04.071Z,17.64
2018-06-12T06:59:33.242Z,17.63
2018-06-12T07:02:56.695Z,17.60
2018-06-12T07:05:25.634Z,17.59
2018-06-12T07:07:54.600Z,17.59
2018-06-12T07:10:23.528Z,17.65
2018-06-12T07:12:52.391Z,17.67
2018-06-12T07:15:21.248Z,17.66
2018-06-12T07:17:50.099Z,17.73
2018-06-12T07:21:08.750Z,17.88
2018-06-12T07:23:37.602Z,18.24
2018-06-12T07:36:33.136Z,18.78
2018-06-12T07:39:01.996Z,18.91
2018-06-12T07:41:30.869Z,19.01
2018-06-12T07:43:59.705Z,19.17
2018-06-12T07:46:28.596Z,19.43
2018-06-12T07:48:57.443Z,20.87
2018-06-12T07:51:29.116Z,21.73
2018-06-12T07:53:57.985Z,21.56
2018-06-12T07:56:26.850Z,21.44
2018-06-12T07:58:55.704Z,21.41
2018-06-12T08:01:24.542Z,21.57
2018-06-12T08:03:53.388Z,21.60
2018-06-12T08:06:22.284Z,21.41
2018-06-12T08:08:51.191Z,21.26
2018-06-12T08:11:20.029Z,21.20
2018-06-12T08:13:57.349Z,21.02
2018-06-12T08:16:26.791Z,20.73
2018-06-12T08:18:55.638Z,20.59
2018-06-12T08:21:24.485Z,20.47
2018-06-12T08:23:53.368Z,20.43
2018-06-12T08:26:22.224Z,20.41
2018-06-12T08:28:51.073Z,21.11
2018-06-12T08:31:19.905Z,21.80
2018-06-12T08:33:48.760Z,22.14
2018-06-12T08:36:17.677Z,23.25
2018-06-12T08:38:46.502Z,24.21
2018-06-12T08:41:15.332Z,24.06
2018-06-12T08:43:44.210Z,24.91
2018-06-12T08:46:13.044Z,24.34
2018-06-12T08:48:41.883Z,24.89
2018-06-12T08:51:10.795Z,25.52
2018-06-12T08:53:39.681Z,26.61
2018-06-12T08:56:08.624Z,28.44
2018-06-12T08:58:37.492Z,29.23
2018-06-12T09:01:06.365Z,28.01
2018-06-12T09:03:35.222Z,28.27
2018-06-12T09:06:04.061Z,29.12
2018-06-12T09:08:32.936Z,28.81
2018-06-12T09:11:02.032Z,28.08
2018-06-12T09:13:30.860Z,26.87
2018-06-12T09:15:59.725Z,26.43
2018-06-12T09:18:28.607Z,26.01
2018-06-12T09:20:57.472Z,26.59
2018-06-12T09:23:26.359Z,26.12
2018-06-12T09:25:55.274Z,26.01
2018-06-12T09:28:24.506Z,25.78
2018-06-12T09:30:53.456Z,25.27
2018-06-12T09:33:22.256Z,24.82
2018-06-12T09:35:51.161Z,24.79
2018-06-12T09:38:20.012Z,24.52
2018-06-12T09:40:48.906Z,24.38
2018-06-12T09:43:17.731Z,25.27
2018-06-12T09:45:46.565Z,26.70
2018-06-12T09:48:15.392Z,26.29
2018-06-12T09:50:44.260Z,26.15
2018-06-12T09:53:13.129Z,25.77
2018-06-12T09:55:41.979Z,25.45
2018-06-12T09:58:10.836Z,25.05
2018-06-12T10:00:57.414Z,25.01
2018-06-12T10:03:26.248Z,24.80
2018-06-12T10:05:55.142Z,24.41
2018-06-12T10:08:24.002Z,23.95
2018-06-12T10:10:53.023Z,23.57
2018-06-12T10:13:21.876Z,23.78
2018-06-12T10:15:50.736Z,24.60
2018-06-12T10:18:19.602Z,25.00
2018-06-12T10:20:48.476Z,24.78
2018-06-12T10:23:17.457Z,24.81
2018-06-12T10:25:46.314Z,24.67
2018-06-12T10:28:15.254Z,24.49
2018-06-12T10:30:44.114Z,23.94
2018-06-12T10:33:12.925Z,23.74
2018-06-12T10:35:41.796Z,23.60
2018-06-12T10:38:10.748Z,23.08
2018-06-12T10:40:39.630Z,22.95
2018-06-12T10:43:08.641Z,22.87
2018-06-12T10:45:37.562Z,22.77
2018-06-12T10:48:06.421Z,22.75
2018-06-12T10:50:35.262Z,22.64
2018-06-12T10:53:04.123Z,22.57
2018-06-12T10:55:32.984Z,22.73
2018-06-12T10:58:01.833Z,22.86
2018-06-12T11:00:30.725Z,22.99
2018-06-12T11:02:59.583Z,22.80
2018-06-12T11:05:28.424Z,22.77
2018-06-12T11:07:57.330Z,22.68
2018-06-12T11:10:26.184Z,22.44
2018-06-12T11:12:55.056Z,22.28
2018-06-12T11:15:23.948Z,22.19
2018-06-12T11:17:52.773Z,22.29
2018-06-12T11:20:21.676Z,22.50
2018-06-12T11:22:50.529Z,22.54
2018-06-12T11:25:19.378Z,22.65
2018-06-12T11:27:48.287Z,22.95
2018-06-12T11:30:17.136Z,22.72
2018-06-12T11:32:46.004Z,22.86
2018-06-12T11:35:14.831Z,22.93
2018-06-12T11:37:43.695Z,22.90
2018-06-12T11:40:12.552Z,22.89
2018-06-12T11:42:41.404Z,22.88
2018-06-12T11:45:10.269Z,23.01
2018-06-12T11:47:39.151Z,22.99
2018-06-12T11:50:07.997Z,22.96
2018-06-12T11:52:36.862Z,22.94
2018-06-12T11:55:06.250Z,22.93
2018-06-12T11:57:35.103Z,22.81
2018-06-12T12:00:04.419Z,22.82
2018-06-12T12:02:33.291Z,22.67
2018-06-12T12:05:02.144Z,22.51
2018-06-12T12:07:30.970Z,22.50
2018-06-12T12:09:59.829Z,22.39
2018-06-12T12:12:28.665Z,22.34
2018-06-12T12:14:57.504Z,22.40
2018-06-12T12:17:26.356Z,22.55
2018-06-12T12:19:55.230Z,22.37
2018-06-12T12:22:24.079Z,22.28
2018-06-12T12:24:52.940Z,22.19
2018-06-12T12:27:21.810Z,21.94
2018-06-12T12:29:50.664Z,21.90
2018-06-12T12:32:19.510Z,21.85
2018-06-12T12:34:48.350Z,21.86
2018-06-12T12:37:17.211Z,21.76
2018-06-12T12:39:46.075Z,21.73
2018-06-12T12:42:14.938Z,21.80
2018-06-12T12:44:43.839Z,21.84
2018-06-12T12:47:12.731Z,22.06
2018-06-12T12:49:41.586Z,22.15
2018-06-12T12:52:10.438Z,22.04
2018-06-12T12:54:39.338Z,21.98
2018-06-12T12:57:08.194Z,21.91
2018-06-12T12:59:37.070Z,21.87
2018-06-12T13:02:05.966Z,21.64
2018-06-12T13:04:34.849Z,21.55
2018-06-12T13:07:03.692Z,21.46
2018-06-12T13:09:32.535Z,21.50
2018-06-12T13:12:01.359Z,21.44
2018-06-12T13:14:30.257Z,21.31
2018-06-12T13:16:59.128Z,21.36
2018-06-12T13:19:27.941Z,21.43
2018-06-12T13:21:56.808Z,21.60
2018-06-12T13:24:25.689Z,21.86
2018-06-12T13:26:54.574Z,22.00
2018-06-12T13:29:23.407Z,21.67
2018-06-12T13:31:52.262Z,21.67
2018-06-12T13:34:21.151Z,21.62
2018-06-12T13:36:50.062Z,21.41
2018-06-12T13:39:18.947Z,21.34
2018-06-12T13:41:47.817Z,21.28
2018-06-12T13:44:16.728Z,21.15
2018-06-12T13:46:45.784Z,21.07
2018-06-12T13:49:14.619Z,20.92
2018-06-12T13:51:43.501Z,20.85
2018-06-12T13:54:12.375Z,20.84
2018-06-12T13:56:41.263Z,20.85
2018-06-12T13:59:10.131Z,20.83
2018-06-12T14:01:38.962Z,20.90
2018-06-12T14:04:07.835Z,20.92
2018-06-12T14:06:36.695Z,20.95
2018-06-12T14:09:07.415Z,21.00
2018-06-12T14:11:36.423Z,20.95
2018-06-12T14:14:05.280Z,20.91
2018-06-12T14:16:34.127Z,20.74
2018-06-12T14:19:02.995Z,20.76
2018-06-12T14:21:31.880Z,20.76
2018-06-12T14:24:00.714Z,20.81
2018-06-12T14:26:29.588Z,20.90
2018-06-12T14:28:58.447Z,20.93
2018-06-12T14:31:27.286Z,20.96
2018-06-12T14:33:56.155Z,21.03
2018-06-12T14:36:24.992Z,21.11
2018-06-12T14:38:53.969Z,21.07
2018-06-12T14:41:22.849Z,21.02
2018-06-12T14:43:51.694Z,20.95
2018-06-12T14:46:20.558Z,20.84
2018-06-12T14:48:49.394Z,20.78
2018-06-12T14:51:18.234Z,20.75
2018-06-12T14:53:47.070Z,21.10
2018-06-12T14:56:15.903Z,20.99
2018-06-12T14:58:44.768Z,21.04
2018-06-12T15:01:13.715Z,21.13
2018-06-12T15:03:42.549Z,21.16
2018-06-12T15:06:11.422Z,21.06
2018-06-12T15:08:40.261Z,21.03
2018-06-12T15:11:09.216Z,21.15
2018-06-12T15:13:38.116Z,20.98
2018-06-12T15:16:06.995Z,20.98
2018-06-12T15:18:35.887Z,20.86
2018-06-12T15:21:04.798Z,20.97
2018-06-12T15:23:33.750Z,20.73
2018-06-12T15:26:02.569Z,20.67
2018-06-12T15:28:32.613Z,20.50
2018-06-12T15:31:01.490Z,20.61
2018-06-12T15:33:30.349Z,20.44
2018-06-12T15:35:59.198Z,20.37
2018-06-12T15:38:28.049Z,20.30
2018-06-12T15:40:56.888Z,20.19
2018-06-12T15:43:25.697Z,20.10
2018-06-12T15:45:54.514Z,19.96
2018-06-12T15:48:23.382Z,19.83
2018-06-12T15:50:52.234Z,19.69
2018-06-12T15:53:21.084Z,19.58
2018-06-12T15:55:49.935Z,19.52
2018-06-12T15:58:18.802Z,19.41
2018-06-12T16:00:47.678Z,19.41
2018-06-12T16:03:16.489Z,19.39
2018-06-12T16:05:45.393Z,19.45
2018-06-12T16:08:14.229Z,19.52
2018-06-12T16:10:43.118Z,19.61
2018-06-12T16:13:11.978Z,19.82
2018-06-12T16:15:40.791Z,19.95
2018-06-12T16:18:09.652Z,20.06
2018-06-12T16:20:38.485Z,20.08
2018-06-12T16:23:07.343Z,20.05
2018-06-12T16:25:36.199Z,20.15
2018-06-12T16:28:05.115Z,20.09
2018-06-12T16:30:34.028Z,20.06
2018-06-12T16:33:02.857Z,19.81
2018-06-12T16:35:31.684Z,19.83
2018-06-12T16:38:00.570Z,19.87
2018-06-12T16:40:29.404Z,19.92
2018-06-12T16:42:58.240Z,19.89
2018-06-12T16:45:27.111Z,19.78
2018-06-12T16:47:55.950Z,19.78
2018-06-12T16:50:24.809Z,19.62
2018-06-12T16:52:53.665Z,19.70
2018-06-12T16:55:22.516Z,19.49
2018-06-12T16:57:51.397Z,19.39
2018-06-12T17:00:20.338Z,19.33
2018-06-12T17:02:49.185Z,19.30
2018-06-12T17:05:18.049Z,19.20
2018-06-12T17:07:46.882Z,19.18
2018-06-12T17:10:15.763Z,19.24
2018-06-12T17:12:44.985Z,19.23
2018-06-12T17:15:13.879Z,19.20
2018-06-12T17:17:42.803Z,19.23
2018-06-12T17:20:11.747Z,19.18
2018-06-12T17:22:40.612Z,19.16
2018-06-12T17:25:09.531Z,19.14
2018-06-12T17:27:38.411Z,19.10
2018-06-12T17:30:07.659Z,19.10
2018-06-12T17:32:36.732Z,19.14
2018-06-12T17:35:05.681Z,19.23
2018-06-12T17:37:34.531Z,19.24
2018-06-12T17:40:03.482Z,19.23
2018-06-12T17:42:32.396Z,19.12
2018-06-12T17:45:01.237Z,19.11
2018-06-12T17:47:30.103Z,19.08
2018-06-12T17:49:59.039Z,19.05
2018-06-12T17:52:27.919Z,19.02
2018-06-12T17:54:56.831Z,19.01
2018-06-12T17:57:25.698Z,18.97
2018-06-12T17:59:54.624Z,18.97
2018-06-12T18:02:23.533Z,18.89
2018-06-12T18:04:52.628Z,19.02
2018-06-12T18:07:21.791Z,19.09
2018-06-12T18:09:50.758Z,18.93
2018-06-12T18:12:19.606Z,18.97
2018-06-12T18:14:48.540Z,18.98
2018-06-12T18:17:17.425Z,18.94
2018-06-12T18:20:01.509Z,18.88
2018-06-12T18:22:31.467Z,18.80
2018-06-12T18:25:00.387Z,18.76
2018-06-12T18:27:29.288Z,18.73
2018-06-12T18:29:58.165Z,18.71
2018-06-12T18:32:27.032Z,18.64
2018-06-12T18:34:55.895Z,18.61
2018-06-12T18:37:24.842Z,18.64
2018-06-12T18:39:53.601Z,18.64
2018-06-12T18:42:22.432Z,18.59
2018-06-12T18:44:51.503Z,18.53
2018-06-12T18:47:20.452Z,18.47
2018-06-12T18:49:49.354Z,18.47
2018-06-12T18:52:18.243Z,18.50
2018-06-12T18:54:47.128Z,18.51
2018-06-12T18:57:15.982Z,18.46
2018-06-12T18:59:44.852Z,18.50
2018-06-12T19:02:13.724Z,18.46
2018-06-12T19:04:42.612Z,18.43
2018-06-12T19:07:11.612Z,18.38
2018-06-12T19:09:40.557Z,18.27
2018-06-12T19:12:09.505Z,18.24
2018-06-12T19:14:38.387Z,18.19
2018-06-12T19:17:07.420Z,18.16
2018-06-12T19:19:36.291Z,18.07
2018-06-12T19:22:05.164Z,18.03
2018-06-12T19:24:34.074Z,17.91
2018-06-12T19:27:02.979Z,17.80
2018-06-12T19:29:33.702Z,17.68
2018-06-12T19:32:02.569Z,17.69
2018-06-12T19:34:31.459Z,17.72
2018-06-12T19:37:00.374Z,17.73
2018-06-12T19:39:29.238Z,17.75
2018-06-12T19:41:58.277Z,17.76
2018-06-12T19:44:27.646Z,17.70
2018-06-12T19:46:56.499Z,17.73
2018-06-12T19:49:25.406Z,17.75
2018-06-12T19:51:54.244Z,17.89
2018-06-12T19:54:23.073Z,17.81
2018-06-12T19:56:51.934Z,17.79
2018-06-12T19:59:20.777Z,17.73
2018-06-12T20:01:49.862Z,17.69
2018-06-12T20:04:18.738Z,17.65
2018-06-12T20:06:47.857Z,17.66
2018-06-12T20:09:16.744Z,17.77
2018-06-12T20:11:45.626Z,17.54
2018-06-12T20:14:14.574Z,17.50
2018-06-12T20:16:43.516Z,17.58
2018-06-12T20:19:12.405Z,17.61
2018-06-12T20:21:41.284Z,17.54
2018-06-12T20:24:10.147Z,17.60
2018-06-12T20:26:38.976Z,17.44
2018-06-12T20:29:07.842Z,17.37
2018-06-12T20:31:36.676Z,17.35
2018-06-12T20:34:06.981Z,17.30
2018-06-12T20:36:35.847Z,17.31
2018-06-12T20:39:07.412Z,17.24
2018-06-12T20:41:36.523Z,17.52
2018-06-12T20:44:05.533Z,17.33
2018-06-12T20:46:34.462Z,17.38
2018-06-12T20:49:03.319Z,17.33
2018-06-12T20:51:32.276Z,17.30
2018-06-12T20:54:01.166Z,17.24
2018-06-12T20:56:30.072Z,17.26
2018-06-12T20:58:59.001Z,17.25
2018-06-12T21:01:27.861Z,17.22
2018-06-12T21:03:56.735Z,17.22
2018-06-12T21:06:25.573Z,17.25
2018-06-12T21:08:54.395Z,17.25
2018-06-12T21:11:23.247Z,17.24
2018-06-12T21:13:52.094Z,17.20
2018-06-12T21:16:24.309Z,17.20
2018-06-12T21:18:53.186Z,17.12
2018-06-12T21:21:22.044Z,17.12
2018-06-12T21:23:50.913Z,17.11
2018-06-12T21:26:19.917Z,17.04
2018-06-12T21:28:48.821Z,17.03
2018-06-12T21:31:17.789Z,16.96
2018-06-12T21:33:46.601Z,16.97
2018-06-12T21:36:15.518Z,16.90
2018-06-12T21:38:50.701Z,17.12
2018-06-12T21:41:19.594Z,16.97
2018-06-12T21:43:48.481Z,16.95
2018-06-12T21:46:17.345Z,16.96
2018-06-12T21:48:46.187Z,16.96
2018-06-12T21:51:15.100Z,16.88
2018-06-12T21:53:43.974Z,17.08
2018-06-12T21:56:12.971Z,16.83
2018-06-12T21:58:41.829Z,16.77
2018-06-12T22:01:10.816Z,16.73
2018-06-12T22:03:39.700Z,16.71
2018-06-12T22:06:08.655Z,16.71
2018-06-12T22:08:37.482Z,16.62
2018-06-12T22:11:06.401Z,16.54
2018-06-12T22:13:35.269Z,16.55
2018-06-12T22:16:04.186Z,16.57
2018-06-12T22:18:32.996Z,16.60
2018-06-12T22:21:01.872Z,16.58
2018-06-12T22:23:30.741Z,16.63
2018-06-12T22:25:59.609Z,16.59
2018-06-12T22:28:28.446Z,16.56
2018-06-12T22:30:57.317Z,16.50
2018-06-12T22:33:26.195Z,16.71
2018-06-12T22:35:55.115Z,16.55
2018-06-12T22:38:23.965Z,16.59
2018-06-12T22:40:52.833Z,16.81
2018-06-12T22:43:21.665Z,16.58
2018-06-12T22:45:50.536Z,16.52
2018-06-12T22:48:19.346Z,16.57
2018-06-12T22:50:48.306Z,16.55
2018-06-12T22:53:17.143Z,16.53
2018-06-12T22:55:46.003Z,16.46
2018-06-12T22:58:14.875Z,16.47
2018-06-12T23:00:43.764Z,16.42
2018-06-12T23:03:12.627Z,16.40
2018-06-12T23:05:41.476Z,16.37
2018-06-12T23:08:10.334Z,16.34
2018-06-12T23:10:39.206Z,16.35
2018-06-12T23:13:08.047Z,16.32
2018-06-12T23:15:36.905Z,16.29
2018-06-12T23:18:06.111Z,16.28
2018-06-12T23:21:28.156Z,16.26
2018-06-12T23:23:57.030Z,16.16
2018-06-12T23:26:25.871Z,16.14
2018-06-12T23:28:54.758Z,16.16
2018-06-12T23:31:23.575Z,16.41
2018-06-12T23:33:52.436Z,16.21
2018-06-12T23:36:21.316Z,16.16
2018-06-12T23:38:50.220Z,16.16
2018-06-12T23:41:19.237Z,16.16
2018-06-12T23:43:48.188Z,16.20
2018-06-12T23:46:17.039Z,16.21
2018-06-12T23:48:45.908Z,16.18
2018-06-12T23:51:14.768Z,16.40
2018-06-12T23:53:43.627Z,16.28
2018-06-12T23:56:12.482Z,16.27
2018-06-12T23:58:41.339Z,16.23
